Time;durP1;ratioP1;P1;durP2;ratioP2;P2;SDS_P1;SDS_P2;PMS_P1;PMS_P2;Temp;Humidity;BMP_temperature;BMP_pressure;BME280_temperature;BME280_humidity;BME280_pressure;Samples;Min_cycle;Max_cycle;Signal;HPM_P1;HPM_P2
2022/06/04 00:00:36;;;;;;;4.53;1.40;;;;;;;;;;5099996;28;20238;-72
2022/06/04 00:03:04;;;;;;;6.43;1.73;;;;;;;;;;5101579;28;20241;-72
2022/06/04 00:05:33;;;;;;;3.23;1.60;;;;;;;;;;5102634;28;20228;-72
2022/06/04 00:08:03;;;;;;;3.73;2.00;;;;;;;;;;5099406;28;20204;-72
2022/06/04 00:16:06;;;;;;;4.03;1.63;;;;;;;;;;5101494;28;20299;-73
2022/06/04 00:18:34;;;;;;;5.53;2.50;;;;;;;;;;5099611;28;20227;-72
2022/06/04 00:21:02;;;;;;;5.30;2.10;;;;;;;;;;5100558;28;20625;-72
2022/06/04 00:23:30;;;;;;;3.57;1.90;;;;;;;;;;5099243;28;20676;-72
2022/06/04 00:26:00;;;;;;;6.33;2.20;;;;;;;;;;5100476;27;20254;-72
2022/06/04 00:28:29;;;;;;;6.60;2.73;;;;;;;;;;5096886;28;20249;-72
2022/06/04 00:30:57;;;;;;;6.70;2.90;;;;;;;;;;5099782;28;20204;-72
2022/06/04 00:33:25;;;;;;;5.60;2.53;;;;;;;;;;5100459;28;20249;-72
2022/06/04 00:35:54;;;;;;;3.50;1.90;;;;;;;;;;5099556;28;20240;-72
2022/06/04 00:38:24;;;;;;;3.13;2.40;;;;;;;;;;5100399;28;20698;-72
2022/06/04 00:40:55;;;;;;;2.73;2.10;;;;;;;;;;5101893;28;20729;-72
2022/06/04 00:43:24;;;;;;;9.03;2.53;;;;;;;;;;5100015;28;20232;-72
2022/06/04 00:46:07;;;;;;;4.60;2.47;;;;;;;;;;5099093;28;20238;-72
2022/06/04 00:48:36;;;;;;;7.07;2.50;;;;;;;;;;5100741;28;20255;-72
2022/06/04 00:51:05;;;;;;;5.77;2.73;;;;;;;;;;5099512;28;20265;-71
2022/06/04 00:53:34;;;;;;;5.47;2.70;;;;;;;;;;5099499;28;20205;-70
2022/06/04 00:56:09;;;;;;;5.47;2.80;;;;;;;;;;5100240;28;20261;-71
2022/06/04 00:58:57;;;;;;;6.03;2.53;;;;;;;;;;5098186;28;20271;-70
2022/06/04 01:01:26;;;;;;;3.47;2.33;;;;;;;;;;5101477;28;20228;-71
2022/06/04 01:03:58;;;;;;;6.23;2.30;;;;;;;;;;5099403;28;20208;-72
2022/06/04 01:06:30;;;;;;;3.87;1.77;;;;;;;;;;5096433;28;20226;-71
2022/06/04 01:09:03;;;;;;;6.67;2.40;;;;;;;;;;5100359;28;20250;-71
2022/06/04 01:11:38;;;;;;;4.10;1.30;;;;;;;;;;5096975;28;20204;-71
2022/06/04 01:14:12;;;;;;;4.10;1.60;;;;;;;;;;5117132;28;20208;-71
2022/06/04 01:16:45;;;;;;;5.37;1.57;;;;;;;;;;5111175;28;20259;-71
2022/06/04 01:19:26;;;;;;;2.23;1.63;;;;;;;;;;5099713;28;20225;-71
2022/06/04 01:22:13;;;;;;;5.47;2.20;;;;;;;;;;5099610;28;20225;-70
2022/06/04 01:24:49;;;;;;;3.47;1.60;;;;;;;;;;5099567;28;20206;-70
2022/06/04 01:27:22;;;;;;;1.97;1.60;;;;;;;;;;5099892;28;20230;-71
2022/06/04 01:29:55;;;;;;;6.70;2.20;;;;;;;;;;5099805;28;20237;-71
2022/06/04 01:32:25;;;;;;;2.17;1.63;;;;;;;;;;5099409;28;20241;-71
2022/06/04 01:35:05;;;;;;;3.23;1.97;;;;;;;;;;5099621;28;20210;-71
2022/06/04 01:37:38;;;;;;;4.77;2.13;;;;;;;;;;5099225;28;20567;-71
2022/06/04 01:42:56;;;;;;;2.30;1.60;;;;;;;;;;5099320;28;20687;-71
2022/06/04 01:45:25;;;;;;;2.87;1.60;;;;;;;;;;5099215;28;20725;-70
2022/06/04 01:47:54;;;;;;;2.07;1.40;;;;;;;;;;5099035;28;20634;-71
2022/06/04 01:50:23;;;;;;;2.83;1.47;;;;;;;;;;5099071;28;20711;-70
2022/06/04 01:52:52;;;;;;;2.60;1.37;;;;;;;;;;5098912;28;20210;-71
2022/06/04 01:55:22;;;;;;;3.10;1.40;;;;;;;;;;5098968;28;20212;-70
2022/06/04 01:57:52;;;;;;;3.03;1.33;;;;;;;;;;5099204;28;20241;-70
2022/06/04 02:00:23;;;;;;;1.77;1.67;;;;;;;;;;5099272;28;20226;-70
2022/06/04 02:02:54;;;;;;;2.00;1.30;;;;;;;;;;5099056;28;20207;-71
2022/06/04 02:05:24;;;;;;;3.23;1.60;;;;;;;;;;5099013;28;20264;-71
2022/06/04 02:07:53;;;;;;;1.40;1.30;;;;;;;;;;5098553;28;20201;-71
2022/06/04 02:10:24;;;;;;;1.77;1.10;;;;;;;;;;5098667;28;20210;-71
2022/06/04 02:12:54;;;;;;;2.50;0.90;;;;;;;;;;5099031;28;20205;-71
2022/06/04 02:15:30;;;;;;;2.23;1.00;;;;;;;;;;5098493;28;20703;-71
2022/06/04 02:17:58;;;;;;;1.20;1.10;;;;;;;;;;5098872;28;20240;-72
2022/06/04 02:20:26;;;;;;;2.20;0.90;;;;;;;;;;5098915;28;20252;-71
2022/06/04 02:22:54;;;;;;;1.67;1.10;;;;;;;;;;5098197;28;20217;-71
2022/06/04 02:25:23;;;;;;;2.57;1.10;;;;;;;;;;5098625;28;20233;-71
2022/06/04 02:27:51;;;;;;;2.20;1.03;;;;;;;;;;5098478;28;20746;-71
2022/06/04 02:30:20;;;;;;;2.83;1.10;;;;;;;;;;5098382;28;20613;-71
2022/06/04 02:32:54;;;;;;;1.73;1.20;;;;;;;;;;5098370;28;20206;-72
2022/06/04 02:35:25;;;;;;;3.37;0.90;;;;;;;;;;5098467;28;20229;-71
2022/06/04 02:37:56;;;;;;;1.20;1.00;;;;;;;;;;5097725;28;20212;-71
2022/06/04 02:40:27;;;;;;;1.23;1.10;;;;;;;;;;5098187;28;20201;-71
2022/06/04 02:42:58;;;;;;;2.50;1.07;;;;;;;;;;5098087;28;20225;-71
2022/06/04 02:45:29;;;;;;;1.30;0.80;;;;;;;;;;5098104;28;20270;-71
2022/06/04 02:48:00;;;;;;;1.27;0.90;;;;;;;;;;5097984;28;20213;-72
2022/06/04 02:50:30;;;;;;;2.27;1.07;;;;;;;;;;5097989;28;20599;-72
2022/06/04 02:52:59;;;;;;;0.90;0.90;;;;;;;;;;5097746;28;20231;-72
2022/06/04 02:55:30;;;;;;;2.70;0.80;;;;;;;;;;5098246;28;20260;-72
2022/06/04 02:57:59;;;;;;;1.97;1.00;;;;;;;;;;5098052;28;20205;-70
2022/06/04 03:00:29;;;;;;;1.83;0.90;;;;;;;;;;5097960;28;20299;-70
2022/06/04 03:02:58;;;;;;;1.90;0.70;;;;;;;;;;5097783;28;20240;-70
2022/06/04 03:05:27;;;;;;;1.70;1.00;;;;;;;;;;5097994;28;20232;-70
2022/06/04 03:07:59;;;;;;;3.03;1.10;;;;;;;;;;5097452;28;20225;-70
2022/06/04 03:10:28;;;;;;;0.60;0.60;;;;;;;;;;5097663;28;20202;-70
2022/06/04 03:12:56;;;;;;;2.00;0.97;;;;;;;;;;5097598;28;20263;-70
2022/06/04 03:15:24;;;;;;;4.87;1.20;;;;;;;;;;5097673;28;20224;-70
2022/06/04 03:17:52;;;;;;;4.53;1.33;;;;;;;;;;5097948;28;20255;-70
2022/06/04 03:20:23;;;;;;;2.97;2.33;;;;;;;;;;5091040;28;20588;-70
2022/06/04 03:22:51;;;;;;;2.87;1.00;;;;;;;;;;5096791;28;20655;-71
2022/06/04 03:25:19;;;;;;;2.23;1.00;;;;;;;;;;5097806;28;20238;-71
2022/06/04 03:27:47;;;;;;;1.23;0.93;;;;;;;;;;5097624;28;20207;-70
2022/06/04 03:30:16;;;;;;;2.10;1.00;;;;;;;;;;5097807;28;20239;-71
2022/06/04 03:32:44;;;;;;;1.67;1.00;;;;;;;;;;5097457;28;20211;-70
2022/06/04 03:35:13;;;;;;;1.00;1.00;;;;;;;;;;5097432;28;20703;-71
2022/06/04 03:37:42;;;;;;;1.20;1.10;;;;;;;;;;5097174;28;20576;-71
2022/06/04 03:40:11;;;;;;;4.00;1.67;;;;;;;;;;5097481;28;20271;-71
2022/06/04 03:42:39;;;;;;;4.37;1.40;;;;;;;;;;5095747;28;20205;-69
2022/06/04 03:45:07;;;;;;;2.17;1.60;;;;;;;;;;5097661;28;20258;-70
2022/06/04 03:47:36;;;;;;;1.50;1.40;;;;;;;;;;5097428;28;20609;-69
2022/06/04 03:50:05;;;;;;;1.77;0.77;;;;;;;;;;5091552;28;20225;-68
2022/06/04 03:52:33;;;;;;;3.37;0.90;;;;;;;;;;5089615;28;20211;-70
2022/06/04 03:55:03;;;;;;;2.40;1.43;;;;;;;;;;5097227;28;20205;-71
2022/06/04 03:57:42;;;;;;;2.90;1.00;;;;;;;;;;5090745;28;20201;-72
2022/06/04 04:00:13;;;;;;;3.20;1.17;;;;;;;;;;5097113;28;20260;-72
2022/06/04 04:02:41;;;;;;;2.77;1.43;;;;;;;;;;5097282;28;20248;-72
2022/06/04 04:05:11;;;;;;;3.47;1.03;;;;;;;;;;5096951;28;20212;-72
2022/06/04 04:07:39;;;;;;;1.87;1.13;;;;;;;;;;5099671;28;20228;-71
2022/06/04 04:10:09;;;;;;;1.87;1.20;;;;;;;;;;5117616;28;20239;-72
2022/06/04 04:12:37;;;;;;;1.90;1.07;;;;;;;;;;5098855;28;20586;-72
2022/06/04 04:15:06;;;;;;;1.67;1.33;;;;;;;;;;5096780;28;20805;-72
2022/06/04 04:17:36;;;;;;;2.17;1.13;;;;;;;;;;5101196;28;20236;-72
2022/06/04 04:20:06;;;;;;;2.23;1.30;;;;;;;;;;5098655;28;20319;-72
2022/06/04 04:22:34;;;;;;;5.07;1.73;;;;;;;;;;5096542;28;20235;-72
2022/06/04 04:25:02;;;;;;;4.53;1.10;;;;;;;;;;5096755;28;20606;-72
2022/06/04 04:27:31;;;;;;;3.90;1.63;;;;;;;;;;5096791;28;20256;-72
2022/06/04 04:29:59;;;;;;;4.10;1.30;;;;;;;;;;5096906;28;20200;-73
2022/06/04 04:32:27;;;;;;;3.13;1.10;;;;;;;;;;5097662;28;20209;-72
2022/06/04 04:34:55;;;;;;;4.30;1.23;;;;;;;;;;5100128;28;20215;-72
2022/06/04 04:37:23;;;;;;;2.83;1.20;;;;;;;;;;5099944;28;20225;-74
2022/06/04 04:39:51;;;;;;;2.03;1.20;;;;;;;;;;5098889;28;20228;-73
2022/06/04 04:42:19;;;;;;;2.30;1.07;;;;;;;;;;5108348;28;20223;-72
2022/06/04 04:44:49;;;;;;;1.77;1.07;;;;;;;;;;5111667;28;20258;-72
2022/06/04 04:47:17;;;;;;;4.40;0.90;;;;;;;;;;5099985;28;20263;-72
2022/06/04 04:49:45;;;;;;;2.67;1.03;;;;;;;;;;5100058;28;20274;-73
2022/06/04 04:52:13;;;;;;;1.07;0.97;;;;;;;;;;5099771;28;20204;-73
2022/06/04 04:54:41;;;;;;;2.50;1.10;;;;;;;;;;5100342;28;20215;-73
2022/06/04 04:57:09;;;;;;;2.00;0.97;;;;;;;;;;5100034;28;20225;-73
2022/06/04 04:59:37;;;;;;;3.03;0.80;;;;;;;;;;5099784;28;20718;-71
2022/06/04 05:02:06;;;;;;;1.90;1.00;;;;;;;;;;5099946;28;20212;-70
2022/06/04 05:04:35;;;;;;;1.90;1.13;;;;;;;;;;5099819;28;20208;-71
2022/06/04 05:07:03;;;;;;;3.53;1.00;;;;;;;;;;5099398;28;20704;-71
2022/06/04 05:09:31;;;;;;;2.30;0.87;;;;;;;;;;5099893;28;20208;-71
2022/06/04 05:11:59;;;;;;;1.23;0.90;;;;;;;;;;5099653;28;20246;-71
2022/06/04 05:14:27;;;;;;;1.97;0.93;;;;;;;;;;5099664;28;20698;-71
2022/06/04 05:16:55;;;;;;;2.97;1.03;;;;;;;;;;5099758;28;20249;-71
2022/06/04 05:19:24;;;;;;;2.90;1.23;;;;;;;;;;5099533;28;20202;-63
2022/06/04 05:21:52;;;;;;;2.90;1.27;;;;;;;;;;5099357;28;20210;-64
2022/06/04 05:24:21;;;;;;;1.97;1.30;;;;;;;;;;5099265;28;20229;-64
2022/06/04 05:26:50;;;;;;;2.30;2.10;;;;;;;;;;5099323;28;20229;-64
2022/06/04 05:29:18;;;;;;;2.47;1.17;;;;;;;;;;5099535;28;20244;-64
2022/06/04 05:31:46;;;;;;;4.67;1.23;;;;;;;;;;5099223;28;20230;-64
2022/06/04 05:34:15;;;;;;;3.13;1.63;;;;;;;;;;5098429;28;20201;-64
2022/06/04 05:36:46;;;;;;;2.47;1.70;;;;;;;;;;5098858;28;20227;-64
2022/06/04 05:39:14;;;;;;;2.93;1.33;;;;;;;;;;5099860;28;20204;-64
2022/06/04 05:41:43;;;;;;;3.27;1.27;;;;;;;;;;5100185;28;20253;-64
2022/06/04 05:44:11;;;;;;;2.57;1.23;;;;;;;;;;5097408;28;20212;-64
2022/06/04 05:46:42;;;;;;;3.07;0.83;;;;;;;;;;5098931;28;20665;-63
2022/06/04 05:49:17;;;;;;;3.13;1.47;;;;;;;;;;5098858;28;20239;-64
2022/06/04 05:51:47;;;;;;;4.10;1.23;;;;;;;;;;5098577;28;20725;-63
2022/06/04 05:54:15;;;;;;;1.13;0.90;;;;;;;;;;5099157;28;20209;-64
2022/06/04 05:56:46;;;;;;;2.40;1.17;;;;;;;;;;5098418;28;20260;-64
2022/06/04 05:59:16;;;;;;;3.30;1.23;;;;;;;;;;5098691;28;20201;-64
2022/06/04 06:01:44;;;;;;;1.53;0.80;;;;;;;;;;5098269;28;20291;-64
2022/06/04 06:04:13;;;;;;;3.67;1.17;;;;;;;;;;5098786;28;20681;-63
2022/06/04 06:06:42;;;;;;;2.23;1.20;;;;;;;;;;5098757;28;20225;-64
2022/06/04 06:09:13;;;;;;;2.00;1.00;;;;;;;;;;5098843;28;20202;-63
2022/06/04 06:11:42;;;;;;;3.90;0.83;;;;;;;;;;5098989;28;20212;-64
2022/06/04 06:14:10;;;;;;;1.93;1.37;;;;;;;;;;5098458;28;20228;-65
2022/06/04 06:16:44;;;;;;;3.53;1.47;;;;;;;;;;5098515;28;20249;-65
2022/06/04 06:19:14;;;;;;;1.10;1.00;;;;;;;;;;5098848;28;20201;-63
2022/06/04 06:21:42;;;;;;;1.90;1.00;;;;;;;;;;5098343;28;20228;-63
2022/06/04 06:24:16;;;;;;;2.83;1.20;;;;;;;;;;5098665;28;20210;-63
2022/06/04 06:26:45;;;;;;;4.27;1.10;;;;;;;;;;5098372;28;20234;-63
2022/06/04 06:29:15;;;;;;;1.90;1.10;;;;;;;;;;5098596;28;20569;-63
2022/06/04 06:31:43;;;;;;;3.50;0.97;;;;;;;;;;5098738;28;20205;-64
2022/06/04 06:34:11;;;;;;;2.90;0.80;;;;;;;;;;5098448;28;20210;-65
2022/06/04 06:36:39;;;;;;;2.57;1.60;;;;;;;;;;5097859;28;20319;-64
2022/06/04 06:39:07;;;;;;;1.43;1.20;;;;;;;;;;5098589;28;20208;-64
2022/06/04 06:41:37;;;;;;;1.90;0.90;;;;;;;;;;5094385;28;20770;-64
2022/06/04 06:44:05;;;;;;;1.57;1.13;;;;;;;;;;5112267;28;20539;-64
2022/06/04 06:46:35;;;;;;;2.23;1.47;;;;;;;;;;5092276;28;20228;-62
2022/06/04 06:49:04;;;;;;;2.00;1.27;;;;;;;;;;5095772;28;20248;-63
2022/06/04 06:51:34;;;;;;;4.90;1.47;;;;;;;;;;5096657;28;20215;-62
2022/06/04 06:54:03;;;;;;;7.30;1.70;;;;;;;;;;5097711;28;20265;-63
2022/06/04 06:56:32;;;;;;;1.43;1.33;;;;;;;;;;5096489;28;20317;-65
2022/06/04 06:59:02;;;;;;;1.63;1.33;;;;;;;;;;5094982;28;20207;-64
2022/06/04 07:01:31;;;;;;;1.90;1.13;;;;;;;;;;5088169;28;20221;-64
2022/06/04 07:04:01;;;;;;;2.17;1.70;;;;;;;;;;5097404;28;20199;-63
2022/06/04 07:06:32;;;;;;;2.33;1.43;;;;;;;;;;5097601;28;20306;-65
2022/06/04 07:09:00;;;;;;;1.30;0.97;;;;;;;;;;5097255;28;20208;-63
2022/06/04 07:11:28;;;;;;;4.47;1.20;;;;;;;;;;5097328;28;20200;-62
2022/06/04 07:13:57;;;;;;;2.37;1.30;;;;;;;;;;5097104;28;20206;-62
2022/06/04 07:16:26;;;;;;;3.43;1.63;;;;;;;;;;5097437;28;20228;-63
2022/06/04 07:18:54;;;;;;;1.93;1.60;;;;;;;;;;5091015;28;20199;-63
2022/06/04 07:21:22;;;;;;;1.93;1.23;;;;;;;;;;5095780;28;20220;-65
2022/06/04 07:23:50;;;;;;;1.83;1.67;;;;;;;;;;5097117;28;20683;-65
2022/06/04 07:26:18;;;;;;;2.03;1.63;;;;;;;;;;5116271;28;20282;-65
2022/06/04 07:28:47;;;;;;;1.97;1.30;;;;;;;;;;5096741;28;20228;-65
2022/06/04 07:31:16;;;;;;;2.67;1.60;;;;;;;;;;5097935;28;20649;-65
2022/06/04 07:33:46;;;;;;;3.67;1.53;;;;;;;;;;5095700;28;20210;-65
2022/06/04 07:36:15;;;;;;;1.80;1.13;;;;;;;;;;5094775;28;20997;-65
2022/06/04 07:38:43;;;;;;;4.30;1.37;;;;;;;;;;5095247;28;20207;-65
2022/06/04 07:41:16;;;;;;;2.90;1.20;;;;;;;;;;5091662;28;20224;-65
2022/06/04 07:43:44;;;;;;;1.63;1.33;;;;;;;;;;5097806;28;20634;-65
2022/06/04 07:46:13;;;;;;;2.67;1.23;;;;;;;;;;5097812;28;20248;-66
2022/06/04 07:48:41;;;;;;;1.50;1.30;;;;;;;;;;5096009;28;20233;-66
2022/06/04 07:51:11;;;;;;;2.03;1.50;;;;;;;;;;5097475;28;20248;-66
2022/06/04 07:53:39;;;;;;;4.67;1.80;;;;;;;;;;5098443;28;20201;-73
2022/06/04 07:56:08;;;;;;;3.13;1.63;;;;;;;;;;5096667;28;20591;-75
2022/06/04 07:58:36;;;;;;;5.73;1.60;;;;;;;;;;5102493;28;20251;-74
2022/06/04 08:01:05;;;;;;;4.90;1.80;;;;;;;;;;5117485;28;20244;-74
2022/06/04 08:03:34;;;;;;;2.93;1.60;;;;;;;;;;5117497;28;20320;-75
2022/06/04 08:06:02;;;;;;;6.60;1.40;;;;;;;;;;5117095;28;20225;-74
2022/06/04 08:08:32;;;;;;;3.37;1.77;;;;;;;;;;5119486;28;20258;-74
2022/06/04 08:11:30;;;;;;;6.40;2.27;;;;;;;;;;5121334;28;20679;-75
2022/06/04 08:13:49;;;;;;;8.23;2.40;;;;;;;;;;5120969;28;20608;-75
2022/06/04 08:16:17;;;;;;;7.50;2.60;;;;;;;;;;5087052;28;20264;-75
2022/06/04 08:18:46;;;;;;;8.60;2.87;;;;;;;;;;5095431;28;20288;-74
2022/06/04 08:21:14;;;;;;;6.97;2.60;;;;;;;;;;5100467;28;20259;-75
2022/06/04 08:23:44;;;;;;;6.00;2.70;;;;;;;;;;5100480;28;20258;-75
2022/06/04 08:26:13;;;;;;;5.13;2.70;;;;;;;;;;5100579;28;20236;-75
2022/06/04 08:28:41;;;;;;;7.90;3.10;;;;;;;;;;5100573;28;20206;-75
2022/06/04 08:31:10;;;;;;;5.57;2.23;;;;;;;;;;5100666;28;20217;-74
2022/06/04 08:33:38;;;;;;;5.60;2.90;;;;;;;;;;5100395;28;20653;-74
2022/06/04 08:36:08;;;;;;;5.57;3.23;;;;;;;;;;5100705;28;20234;-74
2022/06/04 08:38:38;;;;;;;6.90;2.70;;;;;;;;;;5100395;28;20207;-74
2022/06/04 08:41:08;;;;;;;8.93;3.33;;;;;;;;;;5098067;28;20207;-72
2022/06/04 08:43:42;;;;;;;11.07;3.23;;;;;;;;;;5100302;28;20227;-74
2022/06/04 08:46:13;;;;;;;6.30;2.93;;;;;;;;;;5100431;28;20226;-73
2022/06/04 08:48:41;;;;;;;7.60;2.53;;;;;;;;;;5100278;28;20278;-74
2022/06/04 08:51:18;;;;;;;11.13;3.00;;;;;;;;;;5100221;28;20237;-74
2022/06/04 08:53:48;;;;;;;7.80;2.83;;;;;;;;;;5100333;28;20243;-74
2022/06/04 08:59:18;;;;;;;6.43;2.63;;;;;;;;;;5099840;28;20315;-74
2022/06/04 09:01:48;;;;;;;3.70;2.03;;;;;;;;;;5099787;28;20258;-74
2022/06/04 09:04:22;;;;;;;4.33;2.17;;;;;;;;;;5100047;28;20212;-74
2022/06/04 09:06:56;;;;;;;6.67;2.10;;;;;;;;;;5099421;28;20221;-75
2022/06/04 09:09:28;;;;;;;5.63;2.43;;;;;;;;;;5099650;28;20197;-75
2022/06/04 09:12:01;;;;;;;8.23;2.23;;;;;;;;;;5099634;28;20198;-75
2022/06/04 09:14:35;;;;;;;11.70;2.30;;;;;;;;;;5099712;28;20550;-74
2022/06/04 09:17:04;;;;;;;5.07;2.50;;;;;;;;;;5099378;28;20219;-74
2022/06/04 09:19:35;;;;;;;8.20;2.30;;;;;;;;;;5098683;28;20233;-74
2022/06/04 09:22:04;;;;;;;6.90;1.80;;;;;;;;;;5099172;28;20233;-66
2022/06/04 09:24:32;;;;;;;10.40;2.83;;;;;;;;;;5099180;28;20210;-65
2022/06/04 09:27:21;;;;;;;11.90;3.30;;;;;;;;;;5099298;28;20673;-66
2022/06/04 09:29:59;;;;;;;10.03;2.30;;;;;;;;;;5099249;28;20271;-66
2022/06/04 09:32:45;;;;;;;9.97;2.37;;;;;;;;;;5099223;28;20700;-66
2022/06/04 09:35:15;;;;;;;7.47;2.60;;;;;;;;;;5099095;28;20689;-66
2022/06/04 09:37:44;;;;;;;5.33;2.20;;;;;;;;;;5098727;28;20214;-66
2022/06/04 09:40:20;;;;;;;8.43;2.50;;;;;;;;;;5096551;28;20224;-66
2022/06/04 09:42:50;;;;;;;8.97;3.17;;;;;;;;;;5098932;28;20725;-66
2022/06/04 09:45:38;;;;;;;8.77;2.40;;;;;;;;;;5098646;28;20339;-66
2022/06/04 09:48:14;;;;;;;7.57;2.33;;;;;;;;;;5098511;28;20268;-66
2022/06/04 09:50:42;;;;;;;7.27;2.10;;;;;;;;;;5098922;28;20675;-65
2022/06/04 09:53:18;;;;;;;6.50;2.33;;;;;;;;;;5100766;28;20675;-66
2022/06/04 09:55:48;;;;;;;10.57;2.50;;;;;;;;;;5110263;28;20560;-64
2022/06/04 09:58:20;;;;;;;4.57;2.20;;;;;;;;;;5119135;28;20239;-63
2022/06/04 10:00:56;;;;;;;7.50;2.40;;;;;;;;;;5119194;28;20838;-72
2022/06/04 10:03:24;;;;;;;6.37;2.17;;;;;;;;;;5102971;28;20761;-73
2022/06/04 10:05:54;;;;;;;9.13;2.73;;;;;;;;;;5093419;28;20304;-73
2022/06/04 10:08:23;;;;;;;10.67;2.80;;;;;;;;;;5098493;28;20243;-75
2022/06/04 10:10:57;;;;;;;10.10;2.67;;;;;;;;;;5098413;28;20263;-72
2022/06/04 10:13:47;;;;;;;11.43;2.90;;;;;;;;;;5098476;28;20229;-73
2022/06/04 10:16:16;;;;;;;11.50;2.47;;;;;;;;;;5100500;28;20217;-73
2022/06/04 10:18:53;;;;;;;6.43;3.03;;;;;;;;;;5098077;28;20241;-74
2022/06/04 10:21:22;;;;;;;7.73;2.50;;;;;;;;;;5098219;28;20259;-63
2022/06/04 10:23:51;;;;;;;9.37;2.50;;;;;;;;;;5098071;28;20260;-64
2022/06/04 10:26:33;;;;;;;9.37;3.00;;;;;;;;;;5098378;28;20267;-64
2022/06/04 10:29:07;;;;;;;10.20;2.70;;;;;;;;;;5098128;28;20243;-66
2022/06/04 10:31:41;;;;;;;8.57;2.50;;;;;;;;;;5098210;28;20239;-64
2022/06/04 10:34:16;;;;;;;7.87;2.23;;;;;;;;;;5098257;28;20207;-65
2022/06/04 10:36:49;;;;;;;7.80;2.38;;;;;;;;;;5098095;28;20232;-63
2022/06/04 10:39:24;;;;;;;10.23;2.30;;;;;;;;;;5097891;28;20578;-62
2022/06/04 10:41:54;;;;;;;13.60;2.50;;;;;;;;;;5096920;28;20206;-65
2022/06/04 10:44:37;;;;;;;10.77;3.47;;;;;;;;;;5097918;28;20263;-72
2022/06/04 10:47:12;;;;;;;8.90;2.77;;;;;;;;;;5098125;28;20275;-72
2022/06/04 10:49:47;;;;;;;9.85;2.72;;;;;;;;;;5097584;28;20228;-72
2022/06/04 10:52:20;;;;;;;12.07;2.67;;;;;;;;;;5097611;28;20247;-71
2022/06/04 10:54:57;;;;;;;8.50;2.42;;;;;;;;;;5098228;28;20289;-71
2022/06/04 10:57:28;;;;;;;10.00;2.60;;;;;;;;;;5097423;28;20661;-71
2022/06/04 10:59:59;;;;;;;6.80;2.30;;;;;;;;;;5096767;28;20205;-71
2022/06/04 11:02:31;;;;;;;7.97;2.72;;;;;;;;;;5105438;28;20255;-71
2022/06/04 11:05:00;;;;;;;6.60;2.58;;;;;;;;;;5117979;28;20251;-72
2022/06/04 11:07:52;;;;;;;8.82;2.53;;;;;;;;;;5118242;28;20258;-71
2022/06/04 11:10:22;;;;;;;9.32;2.63;;;;;;;;;;5117775;28;20212;-70
2022/06/04 11:13:00;;;;;;;7.00;2.33;;;;;;;;;;5117625;28;20199;-70
2022/06/04 11:15:34;;;;;;;11.77;2.53;;;;;;;;;;5104443;28;20227;-71
2022/06/04 11:18:05;;;;;;;5.68;2.35;;;;;;;;;;5087260;28;20727;-69
2022/06/04 11:20:36;;;;;;;4.32;2.15;;;;;;;;;;5097466;28;20622;-69
2022/06/04 11:23:15;;;;;;;10.13;2.42;;;;;;;;;;5097037;28;20309;-70
2022/06/04 11:25:46;;;;;;;8.30;2.47;;;;;;;;;;5097042;28;20257;-70
2022/06/04 11:28:26;;;;;;;8.07;2.28;;;;;;;;;;5097384;28;20266;-70
2022/06/04 11:31:00;;;;;;;10.13;2.60;;;;;;;;;;5095596;28;20236;-74
2022/06/04 11:33:32;;;;;;;13.60;2.40;;;;;;;;;;5097355;28;20237;-74
2022/06/04 11:36:25;;;;;;;5.10;2.20;;;;;;;;;;5098293;28;20231;-72
2022/06/04 11:39:00;;;;;;;5.15;1.98;;;;;;;;;;5117355;28;20668;-72
2022/06/04 11:41:35;;;;;;;11.93;2.50;;;;;;;;;;5094542;28;20207;-72
2022/06/04 11:44:24;;;;;;;10.00;2.95;;;;;;;;;;5102099;28;21037;-72
2022/06/04 11:47:02;;;;;;;6.82;2.95;;;;;;;;;;5102985;28;20233;-71
2022/06/04 11:49:35;;;;;;;6.47;2.17;;;;;;;;;;5102382;28;20707;-71
2022/06/04 11:52:17;;;;;;;14.70;2.55;;;;;;;;;;5102550;28;20256;-72
2022/06/04 11:55:00;;;;;;;10.70;2.42;;;;;;;;;;5103217;28;20204;-71
2022/06/04 11:57:34;;;;;;;13.15;2.53;;;;;;;;;;5100779;28;20235;-71
2022/06/04 12:00:13;;;;;;;8.00;2.50;;;;;;;;;;5102729;28;20632;-71
2022/06/04 12:02:46;;;;;;;6.68;2.30;;;;;;;;;;5102397;28;20212;-72
2022/06/04 12:05:21;;;;;;;6.38;2.38;;;;;;;;;;5102259;28;20225;-73
2022/06/04 12:07:53;;;;;;;14.85;2.88;;;;;;;;;;5102944;28;20212;-73
2022/06/04 12:10:24;;;;;;;14.68;2.42;;;;;;;;;;5102444;28;20644;-72
2022/06/04 12:12:57;;;;;;;14.45;3.17;;;;;;;;;;5102180;28;20257;-72
2022/06/04 12:15:32;;;;;;;11.63;2.90;;;;;;;;;;5101923;28;20233;-71
2022/06/04 12:18:05;;;;;;;12.75;3.28;;;;;;;;;;5101789;28;20548;-71
2022/06/04 12:26:19;;;;;;;10.48;2.22;;;;;;;;;;5101686;28;20280;-72
2022/06/04 12:28:48;;;;;;;13.38;2.67;;;;;;;;;;5102118;28;20255;-73
2022/06/04 12:31:27;;;;;;;11.65;2.92;;;;;;;;;;5101711;28;20215;-72
2022/06/04 12:33:56;;;;;;;8.30;2.67;;;;;;;;;;5102135;28;20234;-72
2022/06/04 12:36:26;;;;;;;8.55;2.50;;;;;;;;;;5101506;28;20233;-72
2022/06/04 12:39:02;;;;;;;14.40;2.90;;;;;;;;;;5101920;28;20266;-73
2022/06/04 12:41:48;;;;;;;6.20;2.10;;;;;;;;;;5101777;28;20208;-72
2022/06/04 12:44:21;;;;;;;11.25;2.83;;;;;;;;;;5101543;28;20228;-72
2022/06/04 12:46:49;;;;;;;9.20;2.80;;;;;;;;;;5101489;28;20289;-73
2022/06/04 12:49:27;;;;;;;11.52;3.67;;;;;;;;;;5101127;28;20229;-75
2022/06/04 12:51:58;;;;;;;6.47;2.55;;;;;;;;;;5101596;28;20259;-74
2022/06/04 12:54:47;;;;;;;10.57;2.92;;;;;;;;;;5102277;28;20197;-74
2022/06/04 12:57:21;;;;;;;10.90;2.45;;;;;;;;;;5096367;28;20230;-74
2022/06/04 12:59:51;;;;;;;9.10;2.42;;;;;;;;;;5101155;28;20205;-74
2022/06/04 13:02:31;;;;;;;15.20;2.80;;;;;;;;;;5101440;28;20213;-74
2022/06/04 13:05:15;;;;;;;13.25;3.40;;;;;;;;;;5100786;28;20247;-74
2022/06/04 13:07:51;;;;;;;11.10;3.70;;;;;;;;;;5100796;28;20603;-75
2022/06/04 13:10:26;;;;;;;14.02;3.00;;;;;;;;;;5117571;28;20208;-74
2022/06/04 13:12:59;;;;;;;7.30;2.42;;;;;;;;;;5100813;28;20258;-74
2022/06/04 13:15:40;;;;;;;10.85;2.95;;;;;;;;;;5101303;28;20255;-74
2022/06/04 13:18:16;;;;;;;14.07;2.92;;;;;;;;;;5098882;28;20688;-74
2022/06/04 13:20:47;;;;;;;9.98;2.50;;;;;;;;;;5100364;28;20233;-74
2022/06/04 13:23:24;;;;;;;13.88;2.80;;;;;;;;;;5099408;28;20205;-74
2022/06/04 13:26:05;;;;;;;14.88;3.67;;;;;;;;;;5099414;28;20704;-75
2022/06/04 13:28:34;;;;;;;14.48;2.75;;;;;;;;;;5099124;28;20548;-75
2022/06/04 13:31:03;;;;;;;9.75;2.97;;;;;;;;;;5099306;28;20236;-76
2022/06/04 13:33:35;;;;;;;10.20;2.47;;;;;;;;;;5099034;28;20233;-75
2022/06/04 13:36:05;;;;;;;10.40;2.67;;;;;;;;;;5098948;28;20607;-75
2022/06/04 13:38:37;;;;;;;5.78;2.42;;;;;;;;;;5098828;28;20236;-75
2022/06/04 13:41:08;;;;;;;17.42;2.88;;;;;;;;;;5094703;28;20240;-76
2022/06/04 13:43:40;;;;;;;10.13;2.55;;;;;;;;;;5099036;28;20256;-76
2022/06/04 13:46:14;;;;;;;16.00;2.97;;;;;;;;;;5099137;28;20229;-79
2022/06/04 13:48:57;;;;;;;14.38;3.45;;;;;;;;;;5098725;28;20282;-78
2022/06/04 13:51:28;;;;;;;11.90;2.88;;;;;;;;;;5099053;28;20236;-77
2022/06/04 13:53:57;;;;;;;14.40;3.45;;;;;;;;;;5094153;28;20198;-77
2022/06/04 13:56:28;;;;;;;11.45;3.40;;;;;;;;;;5098516;28;20252;-75
2022/06/04 13:58:56;;;;;;;10.45;3.45;;;;;;;;;;5097958;28;20205;-75
2022/06/04 14:01:30;;;;;;;13.02;2.97;;;;;;;;;;5098379;28;20228;-76
2022/06/04 14:06:41;;;;;;;11.23;3.55;;;;;;;;;;5097329;28;20228;-76
2022/06/04 14:09:10;;;;;;;10.98;3.08;;;;;;;;;;5098512;28;20205;-76
2022/06/04 14:11:46;;;;;;;14.75;2.92;;;;;;;;;;5098748;28;20216;-76
2022/06/04 14:14:23;;;;;;;13.32;3.50;;;;;;;;;;5098539;28;20209;-76
2022/06/04 14:16:56;;;;;;;11.80;3.08;;;;;;;;;;5098362;28;20708;-75
2022/06/04 14:19:32;;;;;;;17.42;3.67;;;;;;;;;;5098372;28;20683;-76
2022/06/04 14:22:06;;;;;;;15.13;3.50;;;;;;;;;;5098049;28;20205;-76
2022/06/04 14:24:46;;;;;;;9.20;2.88;;;;;;;;;;5098227;28;20221;-76
2022/06/04 14:27:20;;;;;;;11.48;2.58;;;;;;;;;;5098208;28;20290;-74
2022/06/04 14:29:50;;;;;;;12.35;3.38;;;;;;;;;;5097831;28;20232;-75
2022/06/04 14:32:22;;;;;;;16.67;3.08;;;;;;;;;;5098441;28;20229;-75
2022/06/04 14:34:50;;;;;;;16.30;4.03;;;;;;;;;;5098078;28;20212;-76
2022/06/04 14:37:24;;;;;;;11.48;2.80;;;;;;;;;;5098444;28;20236;-76
2022/06/04 14:39:53;;;;;;;10.35;3.03;;;;;;;;;;5095413;28;20201;-75
2022/06/04 14:42:33;;;;;;;8.75;2.75;;;;;;;;;;5098784;28;20242;-75
2022/06/04 14:45:28;;;;;;;8.98;2.85;;;;;;;;;;5118303;28;20263;-75
2022/06/04 14:48:16;;;;;;;13.45;2.92;;;;;;;;;;5082159;28;20236;-75
2022/06/04 14:50:47;;;;;;;10.68;2.80;;;;;;;;;;5118245;28;20240;-75
2022/06/04 14:53:17;;;;;;;17.05;4.65;;;;;;;;;;5118221;28;20282;-75
2022/06/04 14:55:55;;;;;;;13.73;3.83;;;;;;;;;;5112601;28;20221;-75
2022/06/04 14:58:31;;;;;;;11.50;3.35;;;;;;;;;;5118431;28;20200;-75
2022/06/04 15:01:22;;;;;;;22.42;3.53;;;;;;;;;;5118179;28;20628;-75
2022/06/04 15:03:59;;;;;;;11.82;3.17;;;;;;;;;;5118212;28;20206;-75
2022/06/04 15:06:29;;;;;;;12.80;3.65;;;;;;;;;;5117630;28;20659;-75
2022/06/04 15:09:07;;;;;;;15.38;3.38;;;;;;;;;;5117880;28;20243;-75
2022/06/04 15:11:59;;;;;;;13.07;4.60;;;;;;;;;;5118404;28;20196;-75
2022/06/04 15:14:33;;;;;;;10.93;2.58;;;;;;;;;;5117923;28;20236;-75
2022/06/04 15:17:07;;;;;;;12.90;3.55;;;;;;;;;;5105397;28;20217;-75
2022/06/04 15:19:38;;;;;;;9.93;3.10;;;;;;;;;;5097487;28;20632;-76
2022/06/04 15:22:12;;;;;;;10.98;3.33;;;;;;;;;;5097225;28;20258;-75
2022/06/04 15:24:50;;;;;;;10.45;3.50;;;;;;;;;;5097140;28;20258;-75
2022/06/04 15:27:26;;;;;;;10.98;2.90;;;;;;;;;;5101059;28;20249;-76